Time;durP1;ratioP1;P1;durP2;ratioP2;P2;SDS_P1;SDS_P2;PMS_P1;PMS_P2;Temp;Humidity;BMP_temperature;BMP_pressure;BME280_temperature;BME280_humidity;BME280_pressure;Samples;Min_cycle;Max_cycle;Signal;HPM_P1;HPM_P2
2022/07/14 00:00:44;;;;;;;;;;;14.60;99.90;;;;;;6216518;23;20343;-70
2022/07/14 00:03:09;;;;;;;;;;;14.60;99.90;;;;;;6216428;23;19920;-70
2022/07/14 00:05:35;;;;;;;;;;;14.60;99.90;;;;;;6189582;23;19922;-70
2022/07/14 00:08:01;;;;;;;;;;;14.60;99.90;;;;;;6189784;23;19966;-71
2022/07/14 00:10:27;;;;;;;;;;;14.60;99.90;;;;;;6216491;23;19970;-71
2022/07/14 00:12:52;;;;;;;;;;;14.50;99.90;;;;;;6216399;23;19915;-71
2022/07/14 00:15:18;;;;;;;;;;;14.50;99.90;;;;;;6189855;23;19955;-70
2022/07/14 00:17:44;;;;;;;;;;;14.50;99.90;;;;;;6216315;23;20252;-70
2022/07/14 00:20:10;;;;;;;;;;;14.60;99.90;;;;;;6216459;23;19939;-70
2022/07/14 00:22:36;;;;;;;;;;;14.60;99.90;;;;;;6189910;23;19982;-70
2022/07/14 00:25:01;;;;;;;;;;;14.70;99.90;;;;;;6189801;23;19923;-69
2022/07/14 00:27:27;;;;;;;;;;;14.70;99.90;;;;;;6216173;23;19919;-70
2022/07/14 00:29:53;;;;;;;;;;;14.60;99.90;;;;;;6216331;23;19962;-70
2022/07/14 00:32:18;;;;;;;;;;;14.60;99.90;;;;;;6215904;23;19923;-69
2022/07/14 00:34:44;;;;;;;;;;;14.60;99.90;;;;;;6216391;23;19916;-69
2022/07/14 00:37:09;;;;;;;;;;;14.50;99.90;;;;;;6218177;23;19916;-70
2022/07/14 00:42:36;;;;;;;;;;;14.50;99.90;;;;;;6217943;23;19923;-70
2022/07/14 00:45:03;;;;;;;;;;;14.50;99.90;;;;;;6218332;23;19939;-70
2022/07/14 00:47:29;;;;;;;;;;;14.50;99.90;;;;;;6217978;23;19919;-69
2022/07/14 00:49:55;;;;;;;;;;;14.50;99.90;;;;;;6191683;23;19915;-70
2022/07/14 00:52:22;;;;;;;;;;;14.40;99.90;;;;;;6218315;23;19916;-69
2022/07/14 00:54:47;;;;;;;;;;;14.40;99.90;;;;;;6218164;23;20274;-71
2022/07/14 00:57:13;;;;;;;;;;;14.40;99.90;;;;;;6218093;23;19998;-72
2022/07/14 00:59:39;;;;;;;;;;;14.40;99.90;;;;;;6218167;23;19926;-70
2022/07/14 01:02:05;;;;;;;;;;;14.40;99.90;;;;;;6218540;23;19951;-71
2022/07/14 01:04:30;;;;;;;;;;;14.40;99.90;;;;;;6217926;23;19916;-70
2022/07/14 01:06:56;;;;;;;;;;;14.40;99.90;;;;;;6217968;23;19955;-69
2022/07/14 01:09:22;;;;;;;;;;;14.40;99.90;;;;;;6218070;23;19926;-70
2022/07/14 01:11:47;;;;;;;;;;;14.30;99.90;;;;;;6217931;23;19920;-72
2022/07/14 01:14:13;;;;;;;;;;;14.20;99.90;;;;;;6218091;23;20261;-70
2022/07/14 01:16:38;;;;;;;;;;;14.20;99.90;;;;;;6191490;23;19998;-69
2022/07/14 01:19:04;;;;;;;;;;;14.20;99.90;;;;;;6166443;23;19916;-70
2022/07/14 01:21:29;;;;;;;;;;;14.70;99.90;;;;;;6218007;23;19916;-68
2022/07/14 01:23:55;;;;;;;;;;;14.20;99.90;;;;;;6217934;23;19999;-70
2022/07/14 01:26:20;;;;;;;;;;;14.20;99.90;;;;;;6217849;23;19919;-70
2022/07/14 01:28:46;;;;;;;;;;;14.20;99.90;;;;;;6217921;23;20335;-73
2022/07/14 01:31:12;;;;;;;;;;;14.10;99.90;;;;;;6217863;23;20241;-72
2022/07/14 01:33:37;;;;;;;;;;;14.10;99.90;;;;;;6190887;23;19966;-72
2022/07/14 01:36:03;;;;;;;;;;;14.20;99.90;;;;;;6217811;23;19920;-70
2022/07/14 01:38:28;;;;;;;;;;;14.20;99.90;;;;;;6217711;23;19920;-69
2022/07/14 01:40:54;;;;;;;;;;;14.20;99.90;;;;;;6217859;23;19954;-71
2022/07/14 01:43:19;;;;;;;;;;;14.20;99.90;;;;;;6190614;23;19972;-70
2022/07/14 01:45:45;;;;;;;;;;;14.20;99.90;;;;;;6217535;23;20337;-69
2022/07/14 01:48:10;;;;;;;;;;;14.10;99.90;;;;;;6190723;23;19916;-70
2022/07/14 01:50:36;;;;;;;;;;;14.10;99.90;;;;;;6217677;23;20280;-71
2022/07/14 01:53:02;;;;;;;;;;;14.10;99.90;;;;;;6217641;23;19962;-70
2022/07/14 01:55:28;;;;;;;;;;;14.00;99.90;;;;;;6190947;23;19916;-69
2022/07/14 01:57:53;;;;;;;;;;;14.00;99.90;;;;;;6217563;23;19916;-69
2022/07/14 02:00:19;;;;;;;;;;;13.90;99.90;;;;;;6217610;23;19981;-71
2022/07/14 02:02:44;;;;;;;;;;;14.00;99.90;;;;;;6217456;23;19920;-70
2022/07/14 02:05:10;;;;;;;;;;;13.90;99.90;;;;;;6217587;23;19923;-69
2022/07/14 02:07:36;;;;;;;;;;;13.90;99.90;;;;;;6217492;23;19959;-70
2022/07/14 02:12:46;;;;;;;;;;;13.90;99.90;;;;;;6190881;23;19923;-69
2022/07/14 02:15:12;;;;;;;;;;;13.90;99.90;;;;;;6217712;23;19919;-73
2022/07/14 02:17:37;;;;;;;;;;;14.00;99.90;;;;;;6217324;23;20373;-69
2022/07/14 02:20:04;;;;;;;;;;;13.90;99.90;;;;;;6217433;23;20368;-69
2022/07/14 02:22:29;;;;;;;;;;;13.90;99.90;;;;;;6217237;23;20329;-69
2022/07/14 02:24:55;;;;;;;;;;;13.90;99.90;;;;;;6190804;23;19916;-71
2022/07/14 02:27:20;;;;;;;;;;;13.90;99.90;;;;;;6217304;23;20237;-70
2022/07/14 02:29:46;;;;;;;;;;;13.90;99.90;;;;;;6217327;23;20222;-72
2022/07/14 02:32:12;;;;;;;;;;;13.90;99.90;;;;;;6217217;23;19916;-69
2022/07/14 02:34:38;;;;;;;;;;;13.80;99.90;;;;;;6190592;23;19922;-69
2022/07/14 02:37:03;;;;;;;;;;;13.80;99.90;;;;;;6217187;23;20009;-69
2022/07/14 02:39:29;;;;;;;;;;;13.90;99.90;;;;;;6190758;23;19924;-69
2022/07/14 02:41:54;;;;;;;;;;;13.80;99.90;;;;;;6217244;23;19939;-72
2022/07/14 02:44:20;;;;;;;;;;;13.10;99.90;;;;;;6216749;23;20237;-70
2022/07/14 02:46:45;;;;;;;;;;;13.80;99.90;;;;;;6216894;23;19999;-69
2022/07/14 02:49:11;;;;;;;;;;;13.80;99.90;;;;;;6190562;23;20317;-72
2022/07/14 02:51:36;;;;;;;;;;;13.80;99.90;;;;;;6217205;23;20270;-69
2022/07/14 02:54:02;;;;;;;;;;;13.80;99.90;;;;;;6217004;23;19923;-69
2022/07/14 02:56:28;;;;;;;;;;;13.70;99.90;;;;;;6216932;23;19915;-70
2022/07/14 02:58:54;;;;;;;;;;;13.70;99.90;;;;;;6216535;23;19971;-70
2022/07/14 03:01:19;;;;;;;;;;;13.60;99.90;;;;;;6217000;23;19920;-71
2022/07/14 03:03:45;;;;;;;;;;;13.60;99.90;;;;;;6216922;23;19978;-69
2022/07/14 03:06:12;;;;;;;;;;;13.50;99.90;;;;;;6216426;23;19916;-70
2022/07/14 03:08:38;;;;;;;;;;;13.50;99.90;;;;;;6190254;23;19916;-71
2022/07/14 03:11:04;;;;;;;;;;;13.50;99.90;;;;;;6190254;23;19990;-70
2022/07/14 03:13:29;;;;;;;;;;;13.50;99.90;;;;;;6216867;23;20017;-70
2022/07/14 03:15:55;;;;;;;;;;;13.40;99.90;;;;;;6190367;23;19916;-70
2022/07/14 03:18:21;;;;;;;;;;;13.30;99.90;;;;;;6216765;23;20273;-72
2022/07/14 03:20:46;;;;;;;;;;;13.30;99.90;;;;;;6216790;23;20325;-71
2022/07/14 03:23:12;;;;;;;;;;;13.50;99.90;;;;;;6190376;23;19922;-70
2022/07/14 03:25:41;;;;;;;;;;;12.00;99.90;;;;;;6216733;23;19916;-69
2022/07/14 03:28:07;;;;;;;;;;;13.30;99.90;;;;;;6216695;23;19998;-70
2022/07/14 03:30:32;;;;;;;;;;;13.20;99.90;;;;;;6190257;23;19997;-71
2022/07/14 03:32:58;;;;;;;;;;;13.10;99.90;;;;;;6216400;23;19920;-70
2022/07/14 03:35:23;;;;;;;;;;;13.10;99.90;;;;;;6216760;23;19943;-69
2022/07/14 03:37:49;;;;;;;;;;;13.20;99.90;;;;;;6216614;23;20391;-70
2022/07/14 03:40:14;;;;;;;;;;;13.10;99.90;;;;;;6216749;23;19916;-70
2022/07/14 03:42:40;;;;;;;;;;;13.10;99.90;;;;;;6216751;23;19990;-71
2022/07/14 03:45:06;;;;;;;;;;;13.00;99.90;;;;;;6216692;23;19915;-69
2022/07/14 03:47:32;;;;;;;;;;;13.00;99.90;;;;;;6189783;23;19959;-69
2022/07/14 03:49:58;;;;;;;;;;;13.00;99.90;;;;;;6216621;23;19970;-71
2022/07/14 03:52:24;;;;;;;;;;;13.10;99.90;;;;;;6216551;23;19915;-69
2022/07/14 03:54:49;;;;;;;;;;;13.00;99.90;;;;;;6216554;23;19982;-68
2022/07/14 03:57:15;;;;;;;;;;;13.10;99.90;;;;;;6216889;23;19916;-72
2022/07/14 03:59:40;;;;;;;;;;;13.00;99.90;;;;;;6216165;23;19919;-69
2022/07/14 04:02:09;;;;;;;;;;;13.10;99.90;;;;;;6216549;23;19916;-70
2022/07/14 04:04:35;;;;;;;;;;;13.10;99.90;;;;;;6216403;23;19916;-69
2022/07/14 04:07:01;;;;;;;;;;;13.20;99.90;;;;;;6189790;23;19916;-69
2022/07/14 04:09:27;;;;;;;;;;;13.20;99.90;;;;;;6216479;23;19991;-70
2022/07/14 04:11:52;;;;;;;;;;;13.20;99.90;;;;;;6216384;23;19923;-69
2022/07/14 04:14:18;;;;;;;;;;;13.20;99.90;;;;;;6189156;23;19947;-71
2022/07/14 04:16:43;;;;;;;;;;;13.30;99.90;;;;;;6216352;23;19922;-70
2022/07/14 04:19:09;;;;;;;;;;;13.30;99.90;;;;;;6216295;23;19923;-70
2022/07/14 04:21:36;;;;;;;;;;;13.30;99.90;;;;;;6189937;23;19951;-69
2022/07/14 04:24:01;;;;;;;;;;;13.60;99.90;;;;;;6216469;23;19978;-68
2022/07/14 04:26:27;;;;;;;;;;;13.30;99.90;;;;;;6189900;23;20271;-71
2022/07/14 04:28:53;;;;;;;;;;;13.30;99.90;;;;;;6216342;23;19915;-70
2022/07/14 04:31:18;;;;;;;;;;;13.30;99.90;;;;;;6216349;23;19939;-70
2022/07/14 04:33:44;;;;;;;;;;;13.30;99.90;;;;;;6216262;23;19972;-69
2022/07/14 04:36:09;;;;;;;;;;;13.30;99.90;;;;;;6216248;23;19991;-72
2022/07/14 04:38:35;;;;;;;;;;;13.30;99.90;;;;;;6216332;23;19916;-69
2022/07/14 04:41:01;;;;;;;;;;;13.20;99.90;;;;;;6216346;23;20241;-70
2022/07/14 04:43:26;;;;;;;;;;;13.30;99.90;;;;;;6215970;23;19916;-69
2022/07/14 04:45:52;;;;;;;;;;;14.30;99.90;;;;;;6216203;23;19916;-70
2022/07/14 04:48:17;;;;;;;;;;;13.40;99.90;;;;;;6216000;23;20238;-70
2022/07/14 04:53:27;;;;;;;;;;;13.40;99.90;;;;;;6189705;23;19916;-70
2022/07/14 04:55:53;;;;;;;;;;;13.40;99.90;;;;;;6189295;23;19916;-69
2022/07/14 04:58:19;;;;;;;;;;;13.80;99.90;;;;;;6216168;23;19927;-69
2022/07/14 05:00:44;;;;;;;;;;;13.50;99.90;;;;;;6215907;23;19923;-69
2022/07/14 05:03:10;;;;;;;;;;;13.40;99.90;;;;;;6216111;23;19981;-71
2022/07/14 05:05:36;;;;;;;;;;;13.50;99.90;;;;;;6189697;23;20245;-71
2022/07/14 05:08:01;;;;;;;;;;;13.50;99.90;;;;;;6189528;23;19943;-70
2022/07/14 05:10:27;;;;;;;;;;;13.30;99.90;;;;;;6216233;23;19916;-70
2022/07/14 05:12:52;;;;;;;;;;;13.70;99.90;;;;;;6189554;23;19981;-69
2022/07/14 05:15:18;;;;;;;;;;;13.20;99.90;;;;;;6216326;23;19959;-69
2022/07/14 05:17:44;;;;;;;;;;;13.60;99.90;;;;;;6216013;23;19916;-70
2022/07/14 05:20:10;;;;;;;;;;;13.60;99.90;;;;;;6216092;23;19920;-70
2022/07/14 05:22:36;;;;;;;;;;;13.70;99.90;;;;;;6217298;23;20226;-69
2022/07/14 05:25:04;;;;;;;;;;;13.70;99.90;;;;;;6217883;23;20237;-69
2022/07/14 05:27:30;;;;;;;;;;;13.70;99.90;;;;;;6190221;23;20241;-70
2022/07/14 05:29:56;;;;;;;;;;;13.80;99.90;;;;;;6217917;23;19916;-71
2022/07/14 05:32:21;;;;;;;;;;;13.80;99.90;;;;;;6191165;23;19920;-69
2022/07/14 05:34:47;;;;;;;;;;;13.90;99.90;;;;;;6217768;23;19950;-71
2022/07/14 05:37:13;;;;;;;;;;;13.90;99.90;;;;;;6191205;23;19923;-68
2022/07/14 05:39:39;;;;;;;;;;;14.00;99.90;;;;;;6191242;23;19919;-69
2022/07/14 05:42:04;;;;;;;;;;;14.00;99.90;;;;;;6217419;23;19961;-70
2022/07/14 05:44:30;;;;;;;;;;;14.10;99.90;;;;;;6217818;23;19938;-69
2022/07/14 05:46:57;;;;;;;;;;;14.10;99.90;;;;;;6191184;23;19916;-71
2022/07/14 05:49:22;;;;;;;;;;;14.60;99.90;;;;;;6217571;23;20284;-69
2022/07/14 05:51:48;;;;;;;;;;;14.20;99.90;;;;;;6217641;23;19943;-70
2022/07/14 05:54:14;;;;;;;;;;;14.30;99.90;;;;;;6165723;23;20287;-71
2022/07/14 05:56:39;;;;;;;;;;;14.30;99.90;;;;;;6217657;23;19920;-69
2022/07/14 05:59:05;;;;;;;;;;;14.40;99.90;;;;;;6217570;23;19922;-69
2022/07/14 06:01:30;;;;;;;;;;;14.50;99.90;;;;;;6217628;23;19923;-69
2022/07/14 06:03:59;;;;;;;;;;;14.50;99.90;;;;;;6217457;23;19916;-72
2022/07/14 06:06:24;;;;;;;;;;;14.60;99.90;;;;;;6165508;23;19916;-69
2022/07/14 06:08:50;;;;;;;;;;;14.60;99.90;;;;;;6217469;23;19916;-70
2022/07/14 06:11:16;;;;;;;;;;;13.80;99.90;;;;;;6217481;23;19962;-69
2022/07/14 06:13:42;;;;;;;;;;;14.70;99.90;;;;;;6217410;23;19923;-72
2022/07/14 06:16:08;;;;;;;;;;;14.80;99.90;;;;;;6217412;23;20014;-70
2022/07/14 06:18:33;;;;;;;;;;;14.90;99.90;;;;;;6217320;23;19999;-71
2022/07/14 06:20:59;;;;;;;;;;;14.90;99.90;;;;;;6217369;23;19973;-69
2022/07/14 06:23:24;;;;;;;;;;;14.90;99.90;;;;;;6215649;23;20253;-70
2022/07/14 06:25:50;;;;;;;;;;;15.00;99.90;;;;;;6189856;23;19916;-69
2022/07/14 06:28:16;;;;;;;;;;;15.10;99.90;;;;;;6216708;23;19915;-71
2022/07/14 06:30:42;;;;;;;;;;;15.10;99.90;;;;;;6217267;23;19926;-72
2022/07/14 06:33:08;;;;;;;;;;;15.20;99.90;;;;;;6217393;23;19923;-69
2022/07/14 06:35:36;;;;;;;;;;;15.40;99.90;;;;;;6190714;23;20222;-70
2022/07/14 06:38:02;;;;;;;;;;;15.30;99.90;;;;;;6217137;23;19916;-69
2022/07/14 06:40:27;;;;;;;;;;;15.30;99.90;;;;;;6216721;23;19923;-72
2022/07/14 06:42:53;;;;;;;;;;;15.50;99.90;;;;;;6217112;23;19935;-69
2022/07/14 06:45:18;;;;;;;;;;;15.50;99.90;;;;;;6217171;23;19923;-70
2022/07/14 06:47:44;;;;;;;;;;;15.50;99.90;;;;;;6216773;23;20024;-71
2022/07/14 06:50:10;;;;;;;;;;;15.60;99.90;;;;;;6216975;23;19920;-69
2022/07/14 06:52:35;;;;;;;;;;;15.60;99.90;;;;;;6216848;23;19939;-69
2022/07/14 06:55:03;;;;;;;;;;;15.80;99.90;;;;;;6217002;23;20284;-69
2022/07/14 06:57:28;;;;;;;;;;;15.70;99.90;;;;;;6216972;23;19939;-70
2022/07/14 06:59:54;;;;;;;;;;;15.70;99.90;;;;;;6190027;23;20321;-70
2022/07/14 07:02:20;;;;;;;;;;;15.80;99.90;;;;;;6190425;23;19919;-69
2022/07/14 07:06:43;;;;;;;;;;;15.50;99.90;;;;;;6216817;23;19951;-73
2022/07/14 07:07:32;;;;;;;;;;;15.90;99.90;;;;;;6190155;23;19923;-69
2022/07/14 07:09:58;;;;;;;;;;;15.90;99.90;;;;;;6190332;23;20252;-70
2022/07/14 07:12:23;;;;;;;;;;;15.90;99.90;;;;;;6216860;23;19915;-70
2022/07/14 07:14:49;;;;;;;;;;;16.00;99.90;;;;;;6190267;23;20034;-70
2022/07/14 07:17:14;;;;;;;;;;;16.00;99.90;;;;;;6190285;23;19915;-69
2022/07/14 07:19:40;;;;;;;;;;;16.10;99.90;;;;;;6190164;23;19922;-69
2022/07/14 07:22:05;;;;;;;;;;;16.10;99.90;;;;;;6216694;23;19922;-69
2022/07/14 07:24:31;;;;;;;;;;;16.20;99.90;;;;;;6216781;23;19991;-70
2022/07/14 07:26:56;;;;;;;;;;;16.30;99.90;;;;;;6190117;23;19923;-71
2022/07/14 07:29:22;;;;;;;;;;;16.30;99.90;;;;;;6216720;23;19916;-72
2022/07/14 07:31:47;;;;;;;;;;;16.40;99.90;;;;;;6216757;23;19969;-71
2022/07/14 07:34:13;;;;;;;;;;;16.40;99.90;;;;;;6216639;23;19955;-70
2022/07/14 07:36:39;;;;;;;;;;;16.50;99.90;;;;;;6216747;23;20337;-69
2022/07/14 07:39:04;;;;;;;;;;;16.50;99.90;;;;;;6216743;23;19915;-71
2022/07/14 07:41:30;;;;;;;;;;;16.60;99.90;;;;;;6216662;23;19990;-69
2022/07/14 07:43:57;;;;;;;;;;;16.60;99.90;;;;;;6216326;23;19916;-72
2022/07/14 07:46:22;;;;;;;;;;;16.70;99.90;;;;;;6216336;23;20329;-70
2022/07/14 07:48:48;;;;;;;;;;;16.80;99.90;;;;;;6216387;23;19923;-71
2022/07/14 07:51:14;;;;;;;;;;;16.90;99.90;;;;;;6216581;23;20348;-70
2022/07/14 07:53:40;;;;;;;;;;;16.90;99.90;;;;;;6216382;23;19919;-70
2022/07/14 07:56:06;;;;;;;;;;;16.90;99.90;;;;;;6189872;23;20313;-70
2022/07/14 07:58:31;;;;;;;;;;;17.00;99.90;;;;;;6216519;23;20179;-69
2022/07/14 08:00:57;;;;;;;;;;;17.00;99.90;;;;;;6216360;23;20035;-69
2022/07/14 08:03:22;;;;;;;;;;;17.00;99.90;;;;;;6189537;23;19968;-70
2022/07/14 08:05:48;;;;;;;;;;;17.00;99.90;;;;;;6216080;23;19922;-70
2022/07/14 08:08:13;;;;;;;;;;;17.10;99.90;;;;;;6216327;23;19923;-70
2022/07/14 08:10:39;;;;;;;;;;;17.20;99.90;;;;;;6216165;23;19982;-69
2022/07/14 08:13:05;;;;;;;;;;;17.20;99.90;;;;;;6216212;23;19922;-70
2022/07/14 08:15:30;;;;;;;;;;;17.20;99.90;;;;;;6216304;23;19915;-69
2022/07/14 08:17:56;;;;;;;;;;;17.20;99.90;;;;;;6189143;23;20332;-69
2022/07/14 08:20:22;;;;;;;;;;;17.20;99.90;;;;;;6216303;23;19915;-70
2022/07/14 08:22:47;;;;;;;;;;;17.30;99.90;;;;;;6216206;23;20344;-72
2022/07/14 08:25:13;;;;;;;;;;;17.40;99.90;;;;;;6189739;23;19955;-71
2022/07/14 08:27:38;;;;;;;;;;;17.40;99.90;;;;;;6215134;23;19923;-71
2022/07/14 08:30:04;;;;;;;;;;;17.40;99.90;;;;;;6189054;23;19916;-70
2022/07/14 08:32:49;;;;;;;;;;;17.50;99.90;;;;;;6216008;23;19942;-71
2022/07/14 08:35:17;;;;;;;;;;;17.40;99.90;;;;;;6216289;23;19916;-70
2022/07/14 08:37:43;;;;;;;;;;;17.40;99.90;;;;;;6215963;23;19991;-70
2022/07/14 08:40:10;;;;;;;;;;;17.40;99.90;;;;;;6189442;23;19966;-71
2022/07/14 08:42:36;;;;;;;;;;;17.40;99.90;;;;;;6215473;23;19951;-69
2022/07/14 08:45:06;;;;;;;;;;;17.40;99.90;;;;;;6216150;23;20015;-69
2022/07/14 08:47:32;;;;;;;;;;;17.50;99.90;;;;;;6215895;23;19916;-71
2022/07/14 08:49:58;;;;;;;;;;;17.50;99.90;;;;;;6189051;23;19916;-72
2022/07/14 08:52:23;;;;;;;;;;;17.60;99.90;;;;;;6189287;23;20326;-70
2022/07/14 08:54:49;;;;;;;;;;;17.60;99.90;;;;;;6215992;23;19920;-70
2022/07/14 08:57:15;;;;;;;;;;;17.60;99.90;;;;;;6216914;23;19915;-70
2022/07/14 08:59:41;;;;;;;;;;;17.60;99.90;;;;;;6190401;23;19947;-72
2022/07/14 09:02:06;;;;;;;;;;;17.60;99.90;;;;;;6217864;23;19923;-71
2022/07/14 09:04:32;;;;;;;;;;;17.60;99.90;;;;;;6217827;23;20245;-69
2022/07/14 09:06:57;;;;;;;;;;;17.60;99.90;;;;;;6217754;23;19916;-71
2022/07/14 09:09:24;;;;;;;;;;;17.70;99.90;;;;;;6191238;23;19916;-70
2022/07/14 09:11:51;;;;;;;;;;;17.70;99.90;;;;;;6190452;23;19929;-69
2022/07/14 09:14:17;;;;;;;;;;;17.80;99.90;;;;;;6217299;23;19924;-73
2022/07/14 09:16:43;;;;;;;;;;;17.80;99.90;;;;;;6216564;23;19916;-71
2022/07/14 09:19:10;;;;;;;;;;;17.80;99.90;;;;;;6217331;23;19922;-72
2022/07/14 09:21:39;;;;;;;;;;;17.90;99.90;;;;;;6217739;23;19916;-71
2022/07/14 09:24:06;;;;;;;;;;;17.90;99.90;;;;;;6217608;23;19963;-72
2022/07/14 09:26:33;;;;;;;;;;;17.90;99.90;;;;;;6217478;23;19923;-71
2022/07/14 09:28:59;;;;;;;;;;;17.90;99.90;;;;;;6190930;23;19915;-72
2022/07/14 09:31:25;;;;;;;;;;;17.90;99.90;;;;;;6191132;23;19971;-73
2022/07/14 09:33:52;;;;;;;;;;;17.80;99.90;;;;;;6217072;23;19915;-73
2022/07/14 09:36:29;;;;;;;;;;;17.80;99.90;;;;;;6191023;23;20321;-73
2022/07/14 09:39:05;;;;;;;;;;;17.90;99.90;;;;;;6191034;23;20380;-74
2022/07/14 09:41:33;;;;;;;;;;;16.90;99.90;;;;;;6217404;23;19916;-74
2022/07/14 09:44:09;;;;;;;;;;;17.80;99.90;;;;;;6217498;23;19916;-71
2022/07/14 09:46:45;;;;;;;;;;;17.80;99.90;;;;;;6217395;23;19920;-69
2022/07/14 09:49:11;;;;;;;;;;;17.90;99.90;;;;;;6217196;23;19915;-70
2022/07/14 09:51:52;;;;;;;;;;;17.90;99.90;;;;;;6190520;23;19923;-70
2022/07/14 09:54:36;;;;;;;;;;;17.90;99.90;;;;;;6217384;23;19923;-70
2022/07/14 09:57:23;;;;;;;;;;;18.00;99.90;;;;;;6190423;23;19999;-71
2022/07/14 09:59:51;;;;;;;;;;;18.00;99.90;;;;;;6217203;23;20342;-70
2022/07/14 10:02:19;;;;;;;;;;;18.00;99.90;;;;;;6217394;23;19970;-70
2022/07/14 10:04:45;;;;;;;;;;;18.10;99.90;;;;;;6217105;23;19916;-70
2022/07/14 10:07:15;;;;;;;;;;;18.10;99.90;;;;;;6217016;23;20234;-72
2022/07/14 10:09:45;;;;;;;;;;;18.20;99.90;;;;;;6217144;23;19920;-70
2022/07/14 10:12:11;;;;;;;;;;;18.20;99.90;;;;;;6217224;23;19919;-71
2022/07/14 10:14:36;;;;;;;;;;;18.20;99.90;;;;;;6190308;23;19998;-70
2022/07/14 10:17:02;;;;;;;;;;;18.20;99.90;;;;;;6217178;23;20291;-70
2022/07/14 10:19:28;;;;;;;;;;;18.20;99.90;;;;;;6190551;23;19924;-72
2022/07/14 10:21:58;;;;;;;;;;;18.20;99.90;;;;;;6216913;23;19915;-70
2022/07/14 10:24:24;;;;;;;;;;;18.20;99.90;;;;;;6217161;23;19915;-72
2022/07/14 10:26:50;;;;;;;;;;;18.20;99.90;;;;;;6190283;23;19927;-70
2022/07/14 10:29:16;;;;;;;;;;;18.20;99.90;;;;;;6217063;23;20292;-69
2022/07/14 10:32:02;;;;;;;;;;;18.20;99.90;;;;;;6216620;23;19920;-70
2022/07/14 10:34:27;;;;;;;;;;;18.20;99.90;;;;;;6215856;23;19916;-70
2022/07/14 10:37:09;;;;;;;;;;;18.60;99.90;;;;;;6216968;23;20297;-69
2022/07/14 10:39:38;;;;;;;;;;;18.30;99.90;;;;;;6216983;23;19923;-72
2022/07/14 10:42:24;;;;;;;;;;;18.50;99.90;;;;;;6216928;23;19922;-71
2022/07/14 10:44:50;;;;;;;;;;;18.30;99.90;;;;;;6199829;23;20240;-71
2022/07/14 10:47:17;;;;;;;;;;;18.80;99.90;;;;;;6190185;23;19923;-69
2022/07/14 10:50:00;;;;;;;;;;;18.30;99.90;;;;;;6216834;23;19982;-70
2022/07/14 10:52:27;;;;;;;;;;;17.80;99.90;;;;;;6190223;23;19923;-71
2022/07/14 10:55:11;;;;;;;;;;;18.30;99.90;;;;;;6216739;23;19916;-70
2022/07/14 10:57:37;;;;;;;;;;;18.30;99.90;;;;;;6216753;23;20321;-70
2022/07/14 11:00:03;;;;;;;;;;;18.30;99.90;;;;;;6190200;23;19923;-70
2022/07/14 11:02:31;;;;;;;;;;;18.30;99.90;;;;;;6216908;23;20341;-72
2022/07/14 11:04:57;;;;;;;;;;;18.30;99.90;;;;;;6216679;23;20319;-71
2022/07/14 11:07:32;;;;;;;;;;;18.30;99.90;;;;;;6216619;23;19915;-71
2022/07/14 11:09:58;;;;;;;;;;;18.40;99.90;;;;;;6216358;23;20238;-72
2022/07/14 11:12:24;;;;;;;;;;;17.40;99.90;;;;;;6216569;23;19922;-70
2022/07/14 11:14:50;;;;;;;;;;;18.40;99.90;;;;;;6216617;23;20272;-70
2022/07/14 11:17:36;;;;;;;;;;;18.40;99.90;;;;;;6216437;23;19916;-71
2022/07/14 11:20:02;;;;;;;;;;;18.40;99.90;;;;;;6216167;23;19915;-72
2022/07/14 11:22:28;;;;;;;;;;;18.40;99.90;;;;;;6216455;23;20266;-72
2022/07/14 11:24:56;;;;;;;;;;;18.50;99.90;;;;;;6216139;23;19959;-70
2022/07/14 11:27:24;;;;;;;;;;;18.40;99.90;;;;;;6188776;23;19970;-71
2022/07/14 11:29:50;;;;;;;;;;;18.40;99.90;;;;;;6188750;23;20054;-70
2022/07/14 11:32:29;;;;;;;;;;;18.40;99.90;;;;;;6216663;23;20325;-70
2022/07/14 11:38:00;;;;;;;;;;;18.40;99.90;;;;;;6216275;23;19923;-72
2022/07/14 11:40:44;;;;;;;;;;;18.40;99.90;;;;;;6216425;23;19922;-71
2022/07/14 11:43:28;;;;;;;;;;;18.40;99.90;;;;;;6216220;23;19919;-71
2022/07/14 11:45:55;;;;;;;;;;;18.40;99.90;;;;;;6216360;23;20250;-69
2022/07/14 11:48:21;;;;;;;;;;;18.30;99.90;;;;;;6216144;23;19919;-70
2022/07/14 11:50:48;;;;;;;;;;;18.30;99.90;;;;;;6216245;23;20252;-70
2022/07/14 11:53:15;;;;;;;;;;;18.30;99.90;;;;;;6216102;23;19977;-70
2022/07/14 11:55:41;;;;;;;;;;;18.20;99.90;;;;;;6216210;23;19916;-71
2022/07/14 11:58:06;;;;;;;;;;;18.20;99.90;;;;;;6216248;23;19938;-71
2022/07/14 12:00:32;;;;;;;;;;;18.20;99.90;;;;;;6216168;23;19961;-72
2022/07/14 12:02:58;;;;;;;;;;;18.20;99.90;;;;;;6189745;23;20322;-70
2022/07/14 12:05:24;;;;;;;;;;;18.30;99.90;;;;;;6189303;23;19916;-70
2022/07/14 12:07:51;;;;;;;;;;;18.30;99.90;;;;;;6216293;23;19962;-70
2022/07/14 12:10:32;;;;;;;;;;;18.30;99.90;;;;;;6216228;23;19938;-72
2022/07/14 12:12:58;;;;;;;;;;;18.40;99.90;;;;;;6216074;23;19916;-72
2022/07/14 12:15:25;;;;;;;;;;;18.50;99.90;;;;;;6216512;23;20219;-70
2022/07/14 12:17:51;;;;;;;;;;;18.60;99.90;;;;;;6216042;23;19920;-70
2022/07/14 12:20:17;;;;;;;;;;;18.70;99.90;;;;;;6216067;23;19970;-70
2022/07/14 12:22:44;;;;;;;;;;;18.70;99.90;;;;;;6216152;23;19947;-70
2022/07/14 12:25:29;;;;;;;;;;;18.60;99.90;;;;;;6216004;23;19927;-71
2022/07/14 12:27:55;;;;;;;;;;;18.70;99.90;;;;;;6215975;23;19916;-72
2022/07/14 12:30:21;;;;;;;;;;;18.60;99.90;;;;;;6214597;23;19977;-70
2022/07/14 12:32:51;;;;;;;;;;;18.50;99.90;;;;;;6191702;23;19916;-72
2022/07/14 12:35:17;;;;;;;;;;;18.50;99.90;;;;;;6218012;23;19916;-71
2022/07/14 12:37:43;;;;;;;;;;;18.50;99.90;;;;;;6217995;23;19916;-71
2022/07/14 12:40:11;;;;;;;;;;;18.40;99.90;;;;;;6218111;23;19986;-72
2022/07/14 12:42:37;;;;;;;;;;;18.40;99.90;;;;;;6217779;23;20252;-70
2022/07/14 12:45:04;;;;;;;;;;;18.50;99.90;;;;;;6218257;23;19982;-70
2022/07/14 12:47:29;;;;;;;;;;;18.60;99.90;;;;;;6191315;23;19998;-70
2022/07/14 12:49:55;;;;;;;;;;;18.70;99.90;;;;;;6217857;23;19947;-72
2022/07/14 12:52:21;;;;;;;;;;;18.70;99.90;;;;;;6217869;23;19939;-71
2022/07/14 12:54:46;;;;;;;;;;;18.80;99.90;;;;;;6191279;23;19990;-71
2022/07/14 12:57:20;;;;;;;;;;;18.70;99.90;;;;;;6217898;23;20245;-70
2022/07/14 12:59:46;;;;;;;;;;;18.70;99.90;;;;;;6217530;23;20356;-71
2022/07/14 13:02:18;;;;;;;;;;;18.60;99.90;;;;;;6217465;23;20389;-71
2022/07/14 13:04:45;;;;;;;;;;;18.60;99.90;;;;;;6217813;23;19951;-71
2022/07/14 13:07:14;;;;;;;;;;;18.50;99.90;;;;;;6217804;23;19926;-72
2022/07/14 13:10:00;;;;;;;;;;;18.50;99.90;;;;;;6217812;23;19924;-69
2022/07/14 13:12:27;;;;;;;;;;;18.40;99.90;;;;;;6217564;23;19922;-72
2022/07/14 13:14:56;;;;;;;;;;;18.40;99.90;;;;;;6217969;23;19916;-70
2022/07/14 13:17:42;;;;;;;;;;;18.30;99.90;;;;;;6217700;23;19920;-70
2022/07/14 13:20:26;;;;;;;;;;;18.30;99.90;;;;;;6217446;23;19916;-71
2022/07/14 13:22:58;;;;;;;;;;;18.30;99.90;;;;;;6217618;23;19916;-71
2022/07/14 13:25:24;;;;;;;;;;;18.30;99.90;;;;;;6217648;23;19995;-70
2022/07/14 13:27:49;;;;;;;;;;;18.20;99.90;;;;;;6217567;23;19963;-72
2022/07/14 13:30:15;;;;;;;;;;;18.20;99.90;;;;;;6216573;23;19922;-72
2022/07/14 13:32:40;;;;;;;;;;;18.20;99.90;;;;;;6190976;23;20249;-72
2022/07/14 13:35:06;;;;;;;;;;;17.30;99.90;;;;;;6217617;23;19952;-70
2022/07/14 13:37:32;;;;;;;;;;;18.20;99.90;;;;;;6217510;23;19923;-70
2022/07/14 13:39:58;;;;;;;;;;;18.20;99.90;;;;;;6217633;23;19916;-71
2022/07/14 13:42:23;;;;;;;;;;;18.20;99.90;;;;;;6217045;23;19955;-71
2022/07/14 13:44:49;;;;;;;;;;;18.20;99.90;;;;;;6217511;23;19916;-70
2022/07/14 13:47:15;;;;;;;;;;;18.10;99.90;;;;;;6217260;23;19916;-72
2022/07/14 13:52:24;;;;;;;;;;;18.10;99.90;;;;;;6217210;23;20333;-70
2022/07/14 13:54:50;;;;;;;;;;;18.00;99.90;;;;;;6216827;23;19927;-72
2022/07/14 13:57:15;;;;;;;;;;;18.10;99.90;;;;;;6217397;23;19915;-70
2022/07/14 13:59:42;;;;;;;;;;;18.00;99.90;;;;;;6217386;23;19916;-72
2022/07/14 14:02:08;;;;;;;;;;;18.00;99.90;;;;;;6190204;23;20237;-70
2022/07/14 14:04:33;;;;;;;;;;;18.00;99.90;;;;;;6189121;23;19995;-70
2022/07/14 14:06:59;;;;;;;;;;;18.10;99.90;;;;;;6217114;23;19930;-73
2022/07/14 14:09:27;;;;;;;;;;;18.10;99.90;;;;;;6190266;23;19916;-69
2022/07/14 14:11:53;;;;;;;;;;;18.10;99.90;;;;;;6217101;23;19916;-72
2022/07/14 14:14:19;;;;;;;;;;;18.10;99.90;;;;;;6215767;23;19923;-71
2022/07/14 14:16:44;;;;;;;;;;;18.20;99.90;;;;;;6217192;23;20249;-70
2022/07/14 14:19:10;;;;;;;;;;;18.20;99.90;;;;;;6190300;23;20241;-71
2022/07/14 14:21:35;;;;;;;;;;;18.30;99.90;;;;;;6189692;23;19951;-70
2022/07/14 14:24:01;;;;;;;;;;;18.30;99.90;;;;;;6217148;23;19915;-70
2022/07/14 14:26:27;;;;;;;;;;;18.40;99.90;;;;;;6216951;23;19954;-70
2022/07/14 14:28:52;;;;;;;;;;;18.50;99.90;;;;;;6217068;23;19916;-69